createdAt,value
2018-07-17T00:00:47.404Z,0.00
2018-07-17T00:01:47.421Z,0.00
2018-07-17T00:02:47.436Z,0.00
2018-07-17T00:03:47.450Z,0.00
2018-07-17T00:04:47.469Z,0.00
2018-07-17T00:05:47.488Z,0.00
2018-07-17T00:06:47.517Z,0.00
2018-07-17T00:07:47.523Z,0.00
2018-07-17T00:08:47.542Z,0.00
2018-07-17T00:09:47.559Z,0.00
2018-07-17T00:10:47.574Z,0.00
2018-07-17T00:11:47.592Z,0.00
2018-07-17T00:12:47.675Z,0.00
2018-07-17T00:13:47.627Z,0.00
2018-07-17T00:14:47.644Z,0.00
2018-07-17T00:15:47.667Z,0.00
2018-07-17T00:16:47.687Z,0.00
2018-07-17T00:17:47.695Z,0.00
2018-07-17T00:18:47.719Z,0.00
2018-07-17T00:19:47.734Z,0.00
2018-07-17T00:20:47.756Z,0.00
2018-07-17T00:21:47.774Z,0.00
2018-07-17T00:22:47.785Z,0.00
2018-07-17T00:23:47.805Z,0.00
2018-07-17T00:24:47.819Z,0.00
2018-07-17T00:25:47.836Z,0.00
2018-07-17T00:26:47.860Z,0.00
2018-07-17T00:27:47.875Z,0.00
2018-07-17T00:28:47.888Z,0.00
2018-07-17T00:29:47.908Z,0.00
2018-07-17T00:30:47.925Z,0.00
2018-07-17T00:31:47.946Z,0.00
2018-07-17T00:32:47.959Z,0.00
2018-07-17T00:33:47.978Z,0.00
2018-07-17T00:34:47.993Z,0.00
2018-07-17T00:35:48.010Z,0.00
2018-07-17T00:36:48.029Z,0.00
2018-07-17T00:37:48.097Z,0.00
2018-07-17T00:38:48.072Z,0.00
2018-07-17T00:39:48.079Z,0.00
2018-07-17T00:40:48.098Z,0.00
2018-07-17T00:41:48.115Z,0.00
2018-07-17T00:42:48.132Z,0.00
2018-07-17T00:43:48.149Z,0.00
2018-07-17T00:44:48.168Z,0.00
2018-07-17T00:45:48.188Z,0.00
2018-07-17T00:46:48.210Z,0.00
2018-07-17T00:47:48.221Z,0.00
2018-07-17T00:48:48.237Z,0.00
2018-07-17T00:49:48.275Z,0.00
2018-07-17T00:50:48.270Z,0.00
2018-07-17T00:51:48.287Z,0.00
2018-07-17T00:52:48.307Z,0.00
2018-07-17T00:53:48.345Z,0.00
2018-07-17T00:54:48.341Z,0.00
2018-07-17T00:55:48.358Z,0.00
2018-07-17T00:56:48.374Z,0.00
2018-07-17T00:57:48.393Z,0.00
2018-07-17T00:58:48.409Z,0.00
2018-07-17T00:59:48.428Z,0.00
2018-07-17T01:00:48.446Z,0.00
2018-07-17T01:01:48.460Z,0.00
2018-07-17T01:02:48.477Z,0.00
2018-07-17T01:03:48.497Z,0.00
2018-07-17T01:04:48.512Z,0.00
2018-07-17T01:05:48.531Z,0.00
2018-07-17T01:06:48.548Z,0.00
2018-07-17T01:07:48.566Z,0.00
2018-07-17T01:08:48.584Z,0.00
2018-07-17T01:09:48.620Z,0.00
2018-07-17T01:10:48.648Z,0.00
2018-07-17T01:11:48.635Z,0.00
2018-07-17T01:12:48.650Z,0.00
2018-07-17T01:13:48.672Z,0.00
2018-07-17T01:14:48.684Z,0.00
2018-07-17T01:15:48.704Z,0.00
2018-07-17T01:16:48.719Z,0.00
2018-07-17T01:17:48.736Z,0.00
2018-07-17T01:18:48.752Z,0.00
2018-07-17T01:19:48.779Z,0.00
2018-07-17T01:20:48.792Z,0.00
2018-07-17T01:21:48.804Z,0.00
2018-07-17T01:22:48.822Z,0.00
2018-07-17T01:23:48.838Z,0.00
2018-07-17T01:24:48.859Z,0.00
2018-07-17T01:25:48.873Z,0.00
2018-07-17T01:26:48.890Z,0.00
2018-07-17T01:27:48.908Z,0.00
2018-07-17T01:28:48.926Z,0.00
2018-07-17T01:29:48.942Z,0.00
2018-07-17T01:30:48.960Z,0.00
2018-07-17T01:31:48.976Z,0.00
2018-07-17T01:32:49.000Z,0.00
2018-07-17T01:33:49.012Z,0.00
2018-07-17T01:34:49.032Z,0.00
2018-07-17T01:35:49.043Z,0.00
2018-07-17T01:36:49.068Z,0.00
2018-07-17T01:37:49.129Z,0.00
2018-07-17T01:38:49.099Z,0.00
2018-07-17T01:39:49.112Z,0.00
2018-07-17T01:40:49.130Z,0.00
2018-07-17T01:41:49.153Z,0.00
2018-07-17T01:42:49.219Z,0.00
2018-07-17T01:43:49.410Z,0.00
2018-07-17T01:44:49.198Z,0.00
2018-07-17T01:45:49.215Z,0.00
2018-07-17T01:46:49.232Z,0.00
2018-07-17T01:47:49.249Z,0.00
2018-07-17T01:48:49.265Z,0.00
2018-07-17T01:49:49.283Z,0.00
2018-07-17T01:50:49.298Z,0.00
2018-07-17T01:51:49.327Z,0.00
2018-07-17T01:52:49.336Z,0.00
2018-07-17T01:53:49.355Z,0.00
2018-07-17T01:54:49.371Z,0.00
2018-07-17T01:55:49.384Z,0.00
2018-07-17T01:56:49.404Z,0.00
2018-07-17T01:57:49.419Z,0.00
2018-07-17T01:58:49.437Z,0.00
2018-07-17T01:59:49.455Z,0.00
2018-07-17T02:00:49.470Z,0.00
2018-07-17T02:01:49.488Z,0.00
2018-07-17T02:02:49.501Z,0.00
2018-07-17T02:03:49.520Z,0.00
2018-07-17T02:04:49.590Z,0.00
2018-07-17T02:05:49.556Z,0.00
2018-07-17T02:06:49.572Z,0.00
2018-07-17T02:07:49.587Z,0.00
2018-07-17T02:08:49.603Z,0.00
2018-07-17T02:09:49.629Z,0.00
2018-07-17T02:10:49.644Z,0.00
2018-07-17T02:11:49.657Z,0.00
2018-07-17T02:12:49.676Z,0.00
2018-07-17T02:13:49.692Z,0.00
2018-07-17T02:14:49.709Z,0.00
2018-07-17T02:15:49.917Z,0.00
2018-07-17T02:16:49.781Z,0.00
2018-07-17T02:17:49.757Z,0.00
2018-07-17T02:18:49.793Z,0.00
2018-07-17T02:19:49.790Z,0.00
2018-07-17T02:20:49.808Z,0.00
2018-07-17T02:21:49.830Z,0.00
2018-07-17T02:22:49.844Z,0.00
2018-07-17T02:23:49.858Z,0.00
2018-07-17T02:24:49.878Z,0.00
2018-07-17T02:25:49.902Z,0.00
2018-07-17T02:26:49.917Z,0.00
2018-07-17T02:27:49.925Z,0.00
2018-07-17T02:28:49.945Z,0.00
2018-07-17T02:29:49.962Z,0.00
2018-07-17T02:30:49.977Z,0.00
2018-07-17T02:31:49.995Z,0.00
2018-07-17T02:32:50.010Z,0.00
2018-07-17T02:33:50.030Z,0.00
2018-07-17T02:34:50.051Z,0.00
2018-07-17T02:35:50.102Z,0.00
2018-07-17T02:36:50.082Z,0.00
2018-07-17T02:37:50.102Z,0.00
2018-07-17T02:38:50.117Z,0.00
2018-07-17T02:39:50.134Z,4.00
2018-07-17T02:40:50.151Z,4.00
2018-07-17T02:41:50.168Z,4.00
2018-07-17T02:42:50.178Z,4.00
2018-07-17T02:43:50.199Z,4.00
2018-07-17T02:44:50.215Z,4.00
2018-07-17T02:45:50.232Z,4.00
2018-07-17T02:46:50.249Z,4.00
2018-07-17T02:47:50.263Z,4.00
2018-07-17T02:48:50.282Z,4.00
2018-07-17T02:49:50.369Z,4.00
2018-07-17T02:50:50.350Z,4.00
2018-07-17T02:51:50.332Z,4.00
2018-07-17T02:52:50.349Z,4.00
2018-07-17T02:53:50.365Z,4.00
2018-07-17T02:54:50.381Z,4.00
2018-07-17T02:55:50.398Z,4.00
2018-07-17T02:56:50.413Z,4.00
2018-07-17T02:57:50.432Z,0.00
2018-07-17T02:58:50.453Z,4.00
2018-07-17T02:59:50.496Z,4.00
2018-07-17T03:00:50.488Z,4.00
2018-07-17T03:01:50.500Z,4.00
2018-07-17T03:02:50.521Z,8.00
2018-07-17T03:03:50.547Z,8.00
2018-07-17T03:04:50.549Z,4.00
2018-07-17T03:05:50.568Z,8.00
2018-07-17T03:06:50.903Z,8.00
2018-07-17T03:07:50.599Z,8.00
2018-07-17T03:08:50.616Z,8.00
2018-07-17T03:09:50.631Z,8.00
2018-07-17T03:10:50.648Z,8.00
2018-07-17T03:11:50.666Z,8.00
2018-07-17T03:12:50.681Z,8.00
2018-07-17T03:13:50.699Z,12.00
2018-07-17T03:14:50.719Z,12.00
2018-07-17T03:15:50.739Z,12.00
2018-07-17T03:16:50.755Z,16.00
2018-07-17T03:17:50.771Z,20.00
2018-07-17T03:18:50.784Z,20.00
2018-07-17T03:19:50.800Z,20.00
2018-07-17T03:20:50.819Z,24.00
2018-07-17T03:21:50.832Z,28.00
2018-07-17T03:22:50.897Z,32.00
2018-07-17T03:23:50.867Z,32.00
2018-07-17T03:24:50.888Z,32.00
2018-07-17T03:25:50.899Z,40.00
2018-07-17T03:26:50.921Z,44.00
2018-07-17T03:27:50.932Z,48.00
2018-07-17T03:28:50.955Z,52.00
2018-07-17T03:29:50.966Z,56.00
2018-07-17T03:30:50.982Z,60.00
2018-07-17T03:31:51.000Z,64.00
2018-07-17T03:32:51.015Z,72.00
2018-07-17T03:33:51.036Z,76.00
2018-07-17T03:34:51.049Z,80.00
2018-07-17T03:35:51.070Z,88.00
2018-07-17T03:36:51.084Z,96.00
2018-07-17T03:37:51.104Z,100.00
2018-07-17T03:38:51.117Z,104.00
2018-07-17T03:39:51.134Z,116.00
2018-07-17T03:40:51.150Z,120.00
2018-07-17T03:41:51.166Z,128.00
2018-07-17T03:42:51.184Z,132.00
2018-07-17T03:43:51.201Z,140.00
2018-07-17T03:44:51.235Z,144.00
2018-07-17T03:45:51.232Z,152.00
2018-07-17T03:46:51.251Z,160.00
2018-07-17T03:47:51.267Z,164.00
2018-07-17T03:48:51.283Z,172.00
2018-07-17T03:49:51.304Z,180.00
2018-07-17T03:50:51.317Z,192.00
2018-07-17T03:51:51.337Z,196.00
2018-07-17T03:52:51.367Z,204.00
2018-07-17T03:53:51.385Z,212.00
2018-07-17T03:54:51.423Z,220.00
2018-07-17T03:55:51.425Z,228.00
2018-07-17T03:56:51.418Z,236.00
2018-07-17T03:57:51.435Z,248.00
2018-07-17T03:58:51.452Z,260.00
2018-07-17T03:59:51.469Z,268.00
2018-07-17T04:00:51.476Z,284.00
2018-07-17T04:01:51.494Z,292.00
2018-07-17T04:02:51.570Z,308.00
2018-07-17T04:03:51.533Z,324.00
2018-07-17T04:04:51.544Z,336.00
2018-07-17T04:05:51.561Z,356.00
2018-07-17T04:06:51.578Z,368.00
2018-07-17T04:07:51.616Z,388.00
2018-07-17T04:08:51.614Z,400.00
2018-07-17T04:09:51.628Z,408.00
2018-07-17T04:10:51.643Z,416.00
2018-07-17T04:11:51.659Z,436.00
2018-07-17T04:12:51.677Z,452.00
2018-07-17T04:13:51.694Z,464.00
2018-07-17T04:14:51.708Z,476.00
2018-07-17T04:15:51.730Z,488.00
2018-07-17T04:16:51.743Z,504.00
2018-07-17T04:17:51.763Z,524.00
2018-07-17T04:18:51.775Z,532.00
2018-07-17T04:19:51.791Z,544.00
2018-07-17T04:20:51.811Z,556.00
2018-07-17T04:21:51.827Z,572.00
2018-07-17T04:22:51.843Z,584.00
2018-07-17T04:23:51.860Z,596.00
2018-07-17T04:24:51.877Z,608.00
2018-07-17T04:25:51.893Z,616.00
2018-07-17T04:26:51.909Z,632.00
2018-07-17T04:27:51.927Z,644.00
2018-07-17T04:28:51.944Z,656.00
2018-07-17T04:29:51.989Z,676.00
2018-07-17T04:30:51.992Z,688.00
2018-07-17T04:31:52.016Z,708.00
2018-07-17T04:32:52.013Z,724.00
2018-07-17T04:33:52.029Z,736.00
2018-07-17T04:34:52.051Z,756.00
2018-07-17T04:35:52.059Z,772.00
2018-07-17T04:36:52.079Z,796.00
2018-07-17T04:37:52.093Z,820.00
2018-07-17T04:38:52.109Z,868.00
2018-07-17T04:39:52.126Z,916.00
2018-07-17T04:40:52.150Z,900.00
2018-07-17T04:41:52.871Z,888.00
2018-07-17T04:42:52.176Z,948.00
2018-07-17T04:43:52.192Z,1020.00
2018-07-17T04:44:52.214Z,1044.00
2018-07-17T04:45:52.227Z,1004.00
2018-07-17T04:46:52.245Z,1004.00
2018-07-17T04:47:53.239Z,1016.00
2018-07-17T04:48:52.278Z,1020.00
2018-07-17T04:49:52.295Z,1032.00
2018-07-17T04:50:53.373Z,1016.00
2018-07-17T04:51:52.328Z,1020.00
2018-07-17T04:52:52.349Z,1024.00
2018-07-17T04:53:52.384Z,1028.00
2018-07-17T04:54:52.389Z,1036.00
2018-07-17T04:55:52.393Z,1048.00
2018-07-17T04:56:52.409Z,1060.00
2018-07-17T04:57:52.752Z,1044.00
2018-07-17T04:58:52.498Z,1040.00
2018-07-17T04:59:52.460Z,1076.00
2018-07-17T05:00:52.478Z,1100.00
2018-07-17T05:01:52.499Z,1124.00
2018-07-17T05:02:52.510Z,1144.00
2018-07-17T05:03:52.657Z,1160.00
2018-07-17T05:04:52.604Z,1184.00
2018-07-17T05:05:52.589Z,1256.00
2018-07-17T05:06:52.577Z,1272.00
2018-07-17T05:07:52.593Z,1228.00
2018-07-17T05:08:52.610Z,1240.00
2018-07-17T05:09:52.630Z,1256.00
2018-07-17T05:10:52.644Z,1268.00
2018-07-17T05:11:52.678Z,1280.00
2018-07-17T05:12:52.749Z,1292.00
2018-07-17T05:13:52.692Z,1308.00
2018-07-17T05:14:52.709Z,1320.00
2018-07-17T05:15:52.726Z,1336.00
2018-07-17T05:16:52.742Z,1352.00
2018-07-17T05:17:52.768Z,1364.00
2018-07-17T05:18:52.779Z,1380.00
2018-07-17T05:19:52.796Z,1388.00
2018-07-17T05:20:52.813Z,1400.00
2018-07-17T05:21:52.828Z,1416.00
2018-07-17T05:22:52.865Z,1432.00
2018-07-17T05:23:52.863Z,1448.00
2018-07-17T05:24:52.877Z,1452.00
2018-07-17T05:25:52.893Z,1464.00
2018-07-17T05:26:52.909Z,1472.00
2018-07-17T05:27:52.930Z,1484.00
2018-07-17T05:28:52.984Z,1496.00
2018-07-17T05:29:52.962Z,1516.00
2018-07-17T05:30:52.977Z,1524.00
2018-07-17T05:31:52.993Z,1536.00
2018-07-17T05:32:53.012Z,1540.00
2018-07-17T05:33:53.028Z,1536.00
2018-07-17T05:34:53.047Z,1548.00
2018-07-17T05:35:53.066Z,1564.00
2018-07-17T05:36:53.079Z,1572.00
2018-07-17T05:37:53.108Z,1572.00
2018-07-17T05:38:53.335Z,1608.00
2018-07-17T05:39:53.131Z,1620.00
2018-07-17T05:40:53.147Z,1636.00
2018-07-17T05:41:53.168Z,1640.00
2018-07-17T05:42:53.180Z,1644.00
2018-07-17T05:43:53.198Z,1644.00
2018-07-17T05:44:53.214Z,1660.00
2018-07-17T05:45:53.238Z,1672.00
2018-07-17T05:46:54.320Z,1672.00
2018-07-17T05:47:53.263Z,1680.00
2018-07-17T05:48:53.284Z,1684.00
2018-07-17T05:49:53.297Z,1696.00
2018-07-17T05:50:53.314Z,1708.00
2018-07-17T05:51:53.373Z,1716.00
2018-07-17T05:52:53.347Z,1720.00
2018-07-17T05:53:53.372Z,1732.00
2018-07-17T05:54:53.388Z,1744.00
2018-07-17T05:55:53.402Z,1764.00
2018-07-17T05:56:53.420Z,1756.00
2018-07-17T05:57:53.447Z,1756.00
2018-07-17T05:58:53.457Z,1788.00
2018-07-17T05:59:53.467Z,1800.00
2018-07-17T06:00:53.484Z,1820.00
2018-07-17T06:01:53.500Z,1832.00
2018-07-17T06:02:53.520Z,1844.00
2018-07-17T06:03:53.554Z,1848.00
2018-07-17T06:04:53.550Z,1868.00
2018-07-17T06:05:53.568Z,1888.00
2018-07-17T06:06:53.588Z,1836.00
2018-07-17T06:07:53.602Z,1860.00
2018-07-17T06:08:53.621Z,1908.00
2018-07-17T06:09:53.639Z,1916.00
2018-07-17T06:10:53.714Z,1932.00
2018-07-17T06:11:53.676Z,1936.00
2018-07-17T06:12:53.689Z,1940.00
2018-07-17T06:13:56.306Z,1904.00
2018-07-17T06:14:53.721Z,1896.00
2018-07-17T06:15:53.783Z,1968.00
2018-07-17T06:16:53.757Z,1976.00
2018-07-17T06:17:53.775Z,1976.00
2018-07-17T06:18:54.736Z,1980.00
2018-07-17T06:19:54.134Z,1992.00
2018-07-17T06:20:53.826Z,2008.00
2018-07-17T06:21:53.842Z,2016.00
2018-07-17T06:22:53.870Z,2028.00
2018-07-17T06:23:53.955Z,2048.00
2018-07-17T06:24:53.893Z,2068.00
2018-07-17T06:25:53.926Z,2076.00
2018-07-17T06:26:53.926Z,2088.00
2018-07-17T06:27:53.949Z,2100.00
2018-07-17T06:28:53.965Z,2108.00
2018-07-17T06:29:53.981Z,2116.00
2018-07-17T06:30:54.011Z,2116.00
2018-07-17T06:31:54.344Z,2120.00
2018-07-17T06:33:54.047Z,2136.00
2018-07-17T06:34:54.068Z,2144.00
2018-07-17T06:35:54.081Z,2148.00
2018-07-17T06:36:54.100Z,2152.00
2018-07-17T06:37:54.116Z,2168.00
2018-07-17T06:38:54.156Z,2172.00
2018-07-17T06:39:54.158Z,2196.00
2018-07-17T06:40:54.169Z,2204.00
2018-07-17T06:41:54.186Z,2228.00
2018-07-17T06:42:54.203Z,2232.00
2018-07-17T06:43:54.233Z,2236.00
2018-07-17T06:44:54.257Z,2232.00
2018-07-17T06:45:55.217Z,2252.00
2018-07-17T06:46:54.279Z,2268.00
2018-07-17T06:47:54.292Z,2280.00
2018-07-17T06:48:54.309Z,2292.00
2018-07-17T06:49:54.328Z,2300.00
2018-07-17T06:50:54.438Z,2304.00
2018-07-17T06:51:54.365Z,2324.00
2018-07-17T06:52:54.384Z,2344.00
2018-07-17T06:53:54.396Z,2364.00
2018-07-17T06:54:54.418Z,2376.00
2018-07-17T06:55:54.442Z,2392.00
2018-07-17T06:56:55.222Z,2400.00
2018-07-17T06:59:54.509Z,2400.00
2018-07-17T07:00:54.522Z,2408.00
2018-07-17T07:01:54.655Z,2428.00
2018-07-17T07:02:54.552Z,2432.00
2018-07-17T07:03:54.570Z,2464.00
2018-07-17T07:04:54.592Z,2488.00
2018-07-17T07:05:54.606Z,2520.00
2018-07-17T07:06:54.624Z,2536.00
2018-07-17T07:07:54.641Z,2556.00
2018-07-17T07:08:54.661Z,2568.00
2018-07-17T07:09:54.676Z,2584.00
2018-07-17T07:10:54.699Z,2592.00
2018-07-17T07:11:54.796Z,2572.00
2018-07-17T07:12:54.729Z,2584.00
2018-07-17T07:13:54.752Z,2588.00
2018-07-17T07:14:54.774Z,2596.00
2018-07-17T07:15:54.780Z,2612.00
2018-07-17T07:16:54.798Z,2624.00
2018-07-17T07:17:54.836Z,2632.00
2018-07-17T07:18:54.842Z,2660.00
2018-07-17T07:19:54.850Z,2676.00
2018-07-17T07:20:54.869Z,2676.00
2018-07-17T07:21:54.901Z,2688.00
2018-07-17T07:22:55.515Z,2692.00
2018-07-17T07:23:54.950Z,2696.00
2018-07-17T07:24:54.940Z,2724.00
2018-07-17T07:25:54.973Z,2740.00
2018-07-17T07:26:55.364Z,2780.00
2018-07-17T07:27:55.008Z,2784.00
2018-07-17T07:28:55.037Z,2808.00
2018-07-17T07:29:55.076Z,2812.00
2018-07-17T07:30:55.243Z,2816.00
2018-07-17T07:31:55.086Z,2844.00
2018-07-17T07:32:55.209Z,2844.00
2018-07-17T07:33:55.100Z,2868.00
2018-07-17T07:34:55.122Z,2876.00
2018-07-17T07:35:55.142Z,2900.00
2018-07-17T07:36:55.161Z,2900.00
2018-07-17T07:37:55.167Z,2912.00
2018-07-17T07:38:55.183Z,2876.00
2018-07-17T07:40:55.960Z,2900.00
2018-07-17T07:41:56.508Z,2884.00
2018-07-17T07:42:55.318Z,2940.00
2018-07-17T07:43:55.270Z,2968.00
2018-07-17T07:44:55.288Z,2988.00
2018-07-17T07:45:55.307Z,3000.00
2018-07-17T07:46:55.324Z,3004.00
2018-07-17T07:47:55.344Z,3008.00
2018-07-17T07:48:55.616Z,3024.00
2018-07-17T07:49:55.391Z,3024.00
2018-07-17T07:50:55.422Z,3032.00
2018-07-17T07:51:55.416Z,3020.00
2018-07-17T07:52:55.431Z,3020.00
2018-07-17T07:53:55.632Z,3036.00
2018-07-17T07:54:55.466Z,3040.00
2018-07-17T07:55:55.490Z,3048.00
2018-07-17T07:56:55.509Z,3060.00
2018-07-17T07:57:55.520Z,3068.00
2018-07-17T07:58:55.538Z,3072.00
2018-07-17T07:59:55.555Z,3080.00
2018-07-17T08:00:55.576Z,3100.00
2018-07-17T08:01:55.593Z,3108.00
2018-07-17T08:02:55.611Z,3116.00
2018-07-17T08:03:55.650Z,3128.00
2018-07-17T08:04:55.664Z,3112.00
2018-07-17T08:05:55.665Z,3124.00
2018-07-17T08:06:56.149Z,3280.00
2018-07-17T08:07:55.707Z,3144.00
2018-07-17T08:08:55.720Z,3148.00
2018-07-17T08:09:55.736Z,3180.00
2018-07-17T08:10:55.758Z,3176.00
2018-07-17T08:11:55.888Z,3192.00
2018-07-17T08:12:55.792Z,3196.00
2018-07-17T08:13:55.809Z,3204.00
2018-07-17T08:14:55.827Z,3208.00
2018-07-17T08:15:55.847Z,3240.00
2018-07-17T08:16:55.870Z,3248.00
2018-07-17T08:17:55.882Z,3244.00
2018-07-17T08:18:55.898Z,3244.00
2018-07-17T08:19:55.937Z,3248.00
2018-07-17T08:20:55.936Z,3264.00
2018-07-17T08:21:55.955Z,3268.00
2018-07-17T08:22:56.018Z,3288.00
2018-07-17T08:23:55.999Z,3292.00
2018-07-17T08:24:56.010Z,3308.00
2018-07-17T08:25:56.030Z,3324.00
2018-07-17T08:26:56.046Z,3332.00
2018-07-17T08:27:56.064Z,3332.00
2018-07-17T08:28:56.126Z,3356.00
2018-07-17T08:29:56.101Z,3380.00
2018-07-17T08:30:56.147Z,3404.00
2018-07-17T08:31:56.152Z,3416.00
2018-07-17T08:32:56.157Z,3384.00
2018-07-17T08:33:56.174Z,3400.00
2018-07-17T08:34:56.195Z,3412.00
2018-07-17T08:35:56.292Z,3412.00
2018-07-17T08:36:56.226Z,3464.00
2018-07-17T08:37:56.246Z,3492.00
2018-07-17T08:38:56.321Z,3512.00
2018-07-17T08:39:56.283Z,3500.00
2018-07-17T08:40:56.300Z,3488.00
2018-07-17T08:41:56.317Z,3480.00
2018-07-17T08:42:56.338Z,3544.00
2018-07-17T08:43:56.357Z,3600.00
2018-07-17T08:44:56.374Z,3616.00
2018-07-17T08:45:56.392Z,3672.00
2018-07-17T08:46:56.417Z,3656.00
2018-07-17T08:47:56.428Z,3700.00
2018-07-17T08:48:56.450Z,3692.00
2018-07-17T08:49:56.472Z,3704.00
2018-07-17T08:50:56.483Z,3724.00
2018-07-17T08:51:56.503Z,3752.00
2018-07-17T08:52:56.524Z,3752.00
2018-07-17T08:53:56.549Z,3720.00
2018-07-17T08:54:56.558Z,3668.00
2018-07-17T08:55:56.575Z,3652.00
2018-07-17T08:56:56.597Z,3524.00
2018-07-17T08:57:56.614Z,3564.00
2018-07-17T08:58:56.733Z,3688.00
2018-07-17T08:59:56.749Z,3804.00
2018-07-17T09:00:56.690Z,3844.00
2018-07-17T09:01:56.709Z,3872.00
2018-07-17T09:02:56.704Z,3888.00
2018-07-17T09:03:56.724Z,3812.00
2018-07-17T09:04:57.211Z,3732.00
2018-07-17T09:05:56.847Z,3900.00
2018-07-17T09:06:56.781Z,3732.00
2018-07-17T09:07:56.802Z,3952.00
2018-07-17T09:08:56.835Z,3984.00
2018-07-17T09:09:56.857Z,4028.00
2018-07-17T09:10:56.860Z,3984.00
2018-07-17T09:11:56.904Z,3980.00
2018-07-17T09:12:56.904Z,3960.00
2018-07-17T09:13:56.916Z,3976.00
2018-07-17T09:14:56.933Z,4036.00
2018-07-17T09:15:56.956Z,4108.00
2018-07-17T09:16:56.975Z,4156.00
2018-07-17T09:17:56.990Z,4164.00
2018-07-17T09:18:57.075Z,4140.00
2018-07-17T09:19:57.028Z,4264.00
2018-07-17T09:20:57.058Z,4188.00
2018-07-17T09:21:57.066Z,4324.00
2018-07-17T09:22:57.083Z,4196.00
2018-07-17T09:23:58.269Z,4200.00
2018-07-17T09:24:57.119Z,4196.00
2018-07-17T09:25:57.141Z,4068.00
2018-07-17T09:26:57.174Z,4392.00
2018-07-17T09:27:57.205Z,4340.00
2018-07-17T09:28:58.237Z,4244.00
2018-07-17T09:29:57.215Z,4164.00
2018-07-17T09:30:57.233Z,4260.00
2018-07-17T09:31:57.264Z,4328.00
2018-07-17T09:32:57.272Z,4360.00
2018-07-17T09:33:57.292Z,4364.00
2018-07-17T09:34:57.379Z,4328.00
2018-07-17T09:35:57.412Z,4372.00
2018-07-17T09:36:57.353Z,4348.00
2018-07-17T09:37:57.593Z,4304.00
2018-07-17T09:38:57.435Z,4240.00
2018-07-17T09:39:57.405Z,4112.00
2018-07-17T09:40:57.430Z,4168.00
2018-07-17T09:41:57.445Z,4240.00
2018-07-17T09:42:57.465Z,4196.00
2018-07-17T09:43:57.488Z,4204.00
2018-07-17T09:44:57.504Z,4256.00
2018-07-17T09:46:57.629Z,4048.00
2018-07-17T09:47:57.562Z,4140.00
2018-07-17T09:48:57.580Z,4244.00
2018-07-17T09:49:57.600Z,4240.00
2018-07-17T09:50:57.618Z,4268.00
2018-07-17T09:51:57.640Z,4200.00
2018-07-17T09:52:57.667Z,4188.00
2018-07-17T09:53:57.680Z,4248.00
2018-07-17T09:54:57.693Z,4244.00
2018-07-17T09:55:57.715Z,4244.00
2018-07-17T09:56:57.742Z,4356.00
2018-07-17T09:57:57.753Z,4432.00
2018-07-17T09:58:57.776Z,4388.00
2018-07-17T09:59:57.818Z,4176.00
2018-07-17T10:00:57.809Z,4400.00
2018-07-17T10:01:57.837Z,4436.00
2018-07-17T10:02:57.848Z,4480.00
2018-07-17T10:03:57.870Z,4508.00
2018-07-17T10:04:57.886Z,4424.00
2018-07-17T10:05:57.911Z,4400.00
2018-07-17T10:06:57.927Z,4436.00
2018-07-17T10:07:57.949Z,4392.00
2018-07-17T10:08:58.009Z,4552.00
2018-07-17T10:09:57.993Z,4068.00
2018-07-17T10:10:58.570Z,3524.00
2018-07-17T10:11:58.025Z,3940.00
2018-07-17T10:12:58.075Z,4212.00
2018-07-17T10:13:58.073Z,4200.00
2018-07-17T10:14:58.083Z,4700.00
2018-07-17T10:15:58.102Z,4692.00
2018-07-17T10:16:58.126Z,4740.00
2018-07-17T10:17:58.144Z,4776.00
2018-07-17T10:18:58.165Z,4672.00
2018-07-17T10:19:58.236Z,4568.00
2018-07-17T10:20:58.200Z,4512.00
2018-07-17T10:21:58.220Z,4560.00
2018-07-17T10:22:58.240Z,4452.00
2018-07-17T10:23:58.264Z,4516.00
2018-07-17T10:24:58.288Z,4564.00
2018-07-17T10:25:58.324Z,4624.00
2018-07-17T10:26:58.325Z,4576.00
2018-07-17T10:27:58.353Z,4504.00
2018-07-17T10:28:58.366Z,4444.00
2018-07-17T10:29:58.381Z,4364.00
2018-07-17T10:30:58.403Z,4452.00
2018-07-17T10:31:58.459Z,4376.00
2018-07-17T10:32:58.521Z,3856.00
2018-07-17T10:33:59.332Z,2748.00
2018-07-17T10:34:58.490Z,2704.00
2018-07-17T10:35:58.522Z,4380.00
2018-07-17T10:36:59.778Z,4380.00
2018-07-17T10:37:59.289Z,4436.00
2018-07-17T10:38:59.973Z,4516.00
2018-07-17T10:39:59.343Z,4492.00
2018-07-17T10:40:58.597Z,4540.00
2018-07-17T10:41:58.636Z,4600.00
2018-07-17T10:42:58.653Z,4568.00
2018-07-17T10:43:58.694Z,4516.00
2018-07-17T10:44:58.689Z,4556.00
2018-07-17T10:45:58.732Z,4592.00
2018-07-17T10:46:58.716Z,4628.00
2018-07-17T10:47:58.743Z,4608.00
2018-07-17T10:48:59.083Z,4588.00
2018-07-17T10:49:58.774Z,4596.00
2018-07-17T10:50:58.842Z,4592.00
2018-07-17T10:51:58.814Z,4532.00
2018-07-17T10:52:58.835Z,4536.00
2018-07-17T10:53:58.851Z,4484.00
2018-07-17T10:54:58.876Z,4520.00
2018-07-17T10:55:58.966Z,4528.00
2018-07-17T10:56:58.924Z,4600.00
2018-07-17T10:57:58.934Z,4572.00
2018-07-17T10:58:58.955Z,4064.00
2018-07-17T10:59:58.971Z,4352.00
2018-07-17T11:00:59.031Z,4440.00
2018-07-17T11:01:59.045Z,4372.00
2018-07-17T11:02:59.040Z,4348.00
2018-07-17T11:03:59.056Z,4412.00
2018-07-17T11:04:59.072Z,4468.00
2018-07-17T11:05:59.091Z,4556.00
2018-07-17T11:06:59.110Z,4576.00
2018-07-17T11:07:59.144Z,4568.00
2018-07-17T11:08:59.157Z,4568.00
2018-07-17T11:09:59.252Z,4476.00
2018-07-17T11:10:59.193Z,4576.00
2018-07-17T11:11:59.210Z,4604.00
2018-07-17T11:12:59.282Z,4596.00
2018-07-17T11:13:59.251Z,4608.00
2018-07-17T11:14:59.290Z,4648.00
2018-07-17T11:15:59.307Z,4632.00
2018-07-17T11:16:59.311Z,4696.00
2018-07-17T11:17:59.327Z,4668.00
2018-07-17T11:18:59.344Z,4688.00
2018-07-17T11:19:59.364Z,4692.00
2018-07-17T11:20:59.389Z,4628.00
2018-07-17T11:21:59.439Z,4712.00
2018-07-17T11:22:59.424Z,4692.00
2018-07-17T11:23:59.462Z,4608.00
2018-07-17T11:24:59.472Z,4728.00
2018-07-17T11:25:59.490Z,4860.00
2018-07-17T11:27:59.525Z,4788.00
2018-07-17T11:28:59.548Z,4956.00
2018-07-17T11:29:59.574Z,4924.00
2018-07-17T11:30:59.596Z,4932.00
2018-07-17T11:31:59.615Z,4948.00
2018-07-17T11:32:59.628Z,4952.00
2018-07-17T11:33:59.654Z,4968.00
2018-07-17T11:34:59.743Z,4956.00
2018-07-17T11:35:59.689Z,5032.00
2018-07-17T11:36:59.812Z,5064.00
2018-07-17T11:37:59.729Z,5072.00
2018-07-17T11:38:59.919Z,5100.00
2018-07-17T11:39:59.768Z,5168.00
2018-07-17T11:40:59.834Z,5196.00
2018-07-17T11:41:59.843Z,5172.00
2018-07-17T11:42:59.832Z,4992.00
2018-07-17T11:43:59.852Z,4728.00
2018-07-17T11:45:00.597Z,3652.00
2018-07-17T11:45:59.993Z,2928.00
2018-07-17T11:46:59.961Z,2932.00
2018-07-17T11:47:59.988Z,3048.00
2018-07-17T11:48:59.951Z,5004.00
2018-07-17T11:50:00.318Z,5196.00
2018-07-17T11:51:00.236Z,5372.00
2018-07-17T11:52:00.357Z,5320.00
2018-07-17T11:53:00.050Z,5464.00
2018-07-17T11:54:00.061Z,5556.00
2018-07-17T11:55:00.085Z,5508.00
2018-07-17T11:56:00.097Z,5508.00
2018-07-17T11:57:00.126Z,5512.00
2018-07-17T11:58:00.182Z,5548.00
2018-07-17T11:59:00.189Z,5556.00
2018-07-17T12:00:00.178Z,5568.00
2018-07-17T12:01:00.200Z,5612.00
2018-07-17T12:02:00.251Z,5672.00
2018-07-17T12:03:00.236Z,5708.00
2018-07-17T12:04:00.432Z,5728.00
2018-07-17T12:05:00.298Z,5924.00
2018-07-17T12:07:00.392Z,6232.00
2018-07-17T12:08:00.377Z,6348.00
2018-07-17T12:09:00.360Z,6416.00
2018-07-17T12:10:00.578Z,6520.00
2018-07-17T12:11:00.399Z,6192.00
2018-07-17T12:12:00.421Z,4300.00
2018-07-17T12:13:00.492Z,6364.00
2018-07-17T12:14:00.509Z,6508.00
2018-07-17T12:15:00.476Z,6672.00
2018-07-17T12:16:00.499Z,6820.00
2018-07-17T12:17:00.523Z,6740.00
2018-07-17T12:18:00.546Z,6816.00
2018-07-17T12:19:00.561Z,6768.00
2018-07-17T12:20:01.183Z,6784.00
2018-07-17T12:21:00.611Z,6856.00
2018-07-17T12:22:00.632Z,6700.00
2018-07-17T12:23:00.644Z,6804.00
2018-07-17T12:24:00.676Z,6780.00
2018-07-17T12:25:00.692Z,6724.00
2018-07-17T12:26:00.711Z,6552.00
2018-07-17T12:27:00.738Z,4424.00
2018-07-17T12:28:00.767Z,4380.00
2018-07-17T12:29:00.800Z,6528.00
2018-07-17T12:30:00.800Z,6456.00
2018-07-17T12:31:01.642Z,6280.00
2018-07-17T12:32:00.838Z,6216.00
2018-07-17T12:33:01.455Z,4268.00
2018-07-17T12:34:01.065Z,6680.00